logo
Games tagged Tactical RPG
# Game Release date
Price
Score rank
(Userscore / Metascore)
Owners
Players
Playtime (Median)
Developer(s)
Publisher(s)
1 Divinity: Original Sin 2 - Definitive Edition Sep 14, 2017 $44.99N/A (N/A/93%)2,000,000 .. 5,000,0005.09%05:53 (05:56)Larian StudiosLarian Studios
2 RimWorld Oct 17, 2018 $34.99N/A (N/A/87%)2,000,000 .. 5,000,00011.3%06:11 (01:16)Ludeon StudiosLudeon Studios
3 Mass Effect Legendary Edition May 14, 2021 $59.99N/A (N/A/86%)500,000 .. 1,000,00039.13%15:32 (18:39)BioWareElectronic Arts
4 The Legend of Heroes: Trails in the Sky Jul 29, 2014 $19.99N/A (N/A/85%)200,000 .. 500,0004.55%02:16 (00:45)Nihon FalcomXSEED Games, Marvelous USA, Inc.
5 Planescape: Torment: Enhanced Edition Apr 11, 2017 $19.99N/A (N/A/85%)200,000 .. 500,0000%00:00 (00:00)BeamdogBeamdog
6 Silent Storm Gold Edition Oct 2, 2013 $9.99N/A (N/A/83%)200,000 .. 500,0000%00:00 (00:00)NivalTHQ Nordic
7 Trials of Fire Apr 9, 2021 $19.99N/A (N/A/83%)50,000 .. 100,0000%00:00 (00:00)Whatboy GamesWhatboy Games
8 Valkyria Chronicles 4 Complete Edition Sep 25, 2018 $49.99N/A (N/A/83%)200,000 .. 500,0003.45%43:26 (14:28)SEGASEGA
9 Dragon Age II Mar 8, 2011 $19.99N/A (N/A/82%)200,000 .. 500,0006.25%66:44 (22:14)BioWareElectronic Arts
10 King's Bounty: Armored Princess Nov 19, 2009 $9.99N/A (N/A/82%)200,000 .. 500,0000%00:00 (00:00)Katauri Interactive1C Entertainment
11 Fallout Tactics: Brotherhood of Steel Aug 19, 2009 $9.99N/A (N/A/82%)1,000,000 .. 2,000,0000%00:00 (00:00)14° EastBethesda Softworks
12 Fell Seal: Arbiter's Mark Apr 30, 2019 $29.99N/A (N/A/82%)200,000 .. 500,0000%00:00 (00:00)6 Eyes Studio1C Entertainment
13 Wargroove Feb 1, 2019 $19.99N/A (N/A/82%)500,000 .. 1,000,0002.44%00:46 (00:15)ChucklefishChucklefish
14 The Banner Saga 3 Jul 26, 2018 $24.99N/A (N/A/82%)100,000 .. 200,0000%00:00 (00:00)StoicVersus Evil
15 The Banner Saga 2 Apr 19, 2016 $24.99N/A (N/A/82%)200,000 .. 500,0000%00:00 (00:00)StoicVersus Evil
16 Disgaea 2 PC Jan 30, 2017 $19.99N/A (N/A/81%)100,000 .. 200,0000%00:00 (00:00)Nippon Ichi Software, Inc.NIS America, Inc.
17 The Age of Decadence Oct 14, 2015 $12.99N/A (N/A/81%)100,000 .. 200,0000%00:00 (00:00)Iron Tower StudioIron Tower Studio
18 The Banner Saga Jan 14, 2014 $24.99N/A (N/A/80%)500,000 .. 1,000,0000%00:00 (00:00)StoicVersus Evil
19 Fallen Enchantress: Legendary Heroes May 22, 2013 $24.99N/A (N/A/80%)200,000 .. 500,0000%00:00 (00:00)Stardock EntertainmentStardock Entertainment
20 Wintermoor Tactics Club May 5, 2020 $14.99N/A (N/A/80%)0 .. 20,0000%00:00 (00:00)EVC GamesVersus Evil
21 Battle Brothers Mar 24, 2017 $29.99N/A (N/A/80%)500,000 .. 1,000,0000%00:00 (00:00)Overhype StudiosOverhype Studios
22 Card Hunter Jul 13, 2015 FreeN/A (N/A/80%)500,000 .. 1,000,0000%00:00 (00:00)The Knights of UnityThe Knights of Unity
23 King's Bounty: The Legend Sep 23, 2008 $6.99N/A (N/A/79%)200,000 .. 500,0000%00:00 (00:00)1C Entertainment1C Entertainment
24 Star Renegades Sep 8, 2020 $24.99N/A (N/A/77%)100,000 .. 200,0000%00:00 (00:00)Massive Damage, Inc.Raw Fury
25 Stirring Abyss Oct 29, 2020 $24.99N/A (N/A/76%)0 .. 20,0000%00:00 (00:00)Sleepy Sentry, K-ProjectSlitherine Ltd.
26 Vaporum Sep 28, 2017 $19.99N/A (N/A/75%)20,000 .. 50,0000%00:00 (00:00)Fatbot Games, s. r. o.Fatbot Games, s. r. o.
27 Armello Sep 1, 2015 $19.99N/A (N/A/75%)200,000 .. 500,0000%00:00 (00:00)League of GeeksLeague of Geeks
28 Chroma Squad Apr 30, 2015 $14.99N/A (N/A/75%)200,000 .. 500,0000%00:00 (00:00)Behold StudiosBehold Studios
29 Blackguards 2 Jan 20, 2015 $0.99N/A (N/A/74%)50,000 .. 100,0000%00:00 (00:00)Daedalic EntertainmentDaedalic Entertainment
30 Eador. Masters of the Broken World Apr 19, 2013 $19.99N/A (N/A/74%)500,000 .. 1,000,0000%00:00 (00:00)Snowbird GamesSnowbird Games
31 King's Bounty: Warriors of the North Oct 25, 2012 $9.99N/A (N/A/74%)200,000 .. 500,0000%00:00 (00:00)1C-SoftClub1C Entertainment
32 Phoenix Point: Year One Edition Dec 3, 2020 $49.99N/A (N/A/74%)200,000 .. 500,0000%00:00 (00:00)Snapshot Games Inc.Snapshot Games Inc.
33 Fort Triumph Apr 16, 2020 $24.99N/A (N/A/74%)20,000 .. 50,0000%00:00 (00:00)CookieByte EntertainmentAll in! Games
34 Expeditions: Viking Apr 27, 2017 $29.99N/A (N/A/74%)200,000 .. 500,0000%00:00 (00:00)Logic ArtistsTHQ Nordic
35 Disgaea PC Feb 24, 2016 $14.99N/A (N/A/74%)200,000 .. 500,0000%00:00 (00:00)Nippon Ichi Software, Inc.NIS America, Inc.
36 Mordheim: City of the Damned Nov 19, 2015 $19.99N/A (N/A/74%)200,000 .. 500,0000%00:00 (00:00)Rogue FactorRogue Factor
37 Earth 2160 Apr 1, 2006 $4.99N/A (N/A/73%)500,000 .. 1,000,0000%00:00 (00:00)Reality Pump StudiosTopware Interactive, ACE
38 Popup Dungeon Aug 12, 2020 $24.99N/A (N/A/73%)0 .. 20,0000%00:00 (00:00)Triple.B.TitlesHumble Games
39 Nowhere Prophet Jul 19, 2019 $24.99N/A (N/A/73%)0 .. 20,0000%00:00 (00:00)Sharkbomb StudiosNo More Robots
40 Halcyon 6: Starbase Commander (LIGHTSPEED EDITION) Aug 10, 2017 $14.99N/A (N/A/73%)100,000 .. 200,0000%00:00 (00:00)Massive Damage, Inc.Massive Damage, Inc.
41 Children of Zodiarcs Jul 18, 2017 $17.99N/A (N/A/73%)20,000 .. 50,0000%00:00 (00:00)Cardboard UtopiaSquare Enix
42 Starpoint Gemini Warlords May 23, 2017 $34.99N/A (N/A/73%)200,000 .. 500,0000%00:00 (00:00)Little Green Men GamesIceberg Interactive
43 Regalia: Of Men and Monarchs May 18, 2017 $6N/A (N/A/73%)20,000 .. 50,0000%00:00 (00:00)Pixelated MilkPixelated Milk
44 MASSIVE CHALICE Jun 1, 2015 $19.99N/A (N/A/73%)50,000 .. 100,0000%00:00 (00:00)Double Fine ProductionsDouble Fine Productions
45 Aarklash: Legacy Sep 12, 2013 $15.99N/A (N/A/72%)100,000 .. 200,0000%00:00 (00:00)Cyanide StudioNacon
46 Viola: The Heroine's Melody Feb 17, 2021 $14.99N/A (N/A/71%)0 .. 20,0000%00:00 (00:00)Jelle van DoorneJelle van Doorne
47 SD GUNDAM G GENERATION CROSS RAYS Nov 27, 2019 $23.99N/A (N/A/71%)200,000 .. 500,0000%00:00 (00:00)TOM CREATE, 株式会社トムクリエイトBANDAI NAMCO Entertainment, 株式会社バンダイナムコエンターテインメント
48 Halcyon 6: Starbase Commander Sep 8, 2016 $14.99N/A (N/A/71%)100,000 .. 200,0000%00:00 (00:00)Massive Damage, Inc.Massive Damage, Inc.
49 Overfall May 17, 2016 $4.99N/A (N/A/71%)100,000 .. 200,0000%00:00 (00:00)Pera GamesPera Games
50 Legends of Eisenwald Jul 2, 2015 $9.99N/A (N/A/71%)100,000 .. 200,0000%00:00 (00:00)Aterdux EntertainmentAterdux Entertainment
51 Starpoint Gemini 2 Sep 26, 2014 $34.99N/A (N/A/70%)500,000 .. 1,000,0000%00:00 (00:00)Little Green Men GamesLittle Green Men Games
52 TINY METAL: FULL METAL RUMBLE Jul 11, 2019 $14.99N/A (N/A/70%)0 .. 20,0000%00:00 (00:00)AREA 35, Inc.AREA 34, Inc.
53 Blackguards Jan 22, 2014 $0.99N/A (N/A/68%)500,000 .. 1,000,0000%00:00 (00:00)Daedalic EntertainmentDaedalic Entertainment
54 Vaporum: Lockdown Sep 15, 2020 $17.99N/A (N/A/68%)0 .. 20,0000%00:00 (00:00)Fatbot Games, s. r. o.Fatbot Games, s. r. o.
55 Pathway Apr 11, 2019 $15.99N/A (N/A/68%)200,000 .. 500,0000%00:00 (00:00)RobotalityChucklefish
56 WARTILE Feb 8, 2018 $19.99N/A (N/A/68%)50,000 .. 100,0000%00:00 (00:00)Playwood ProjectDeck13, WhisperGames
57 TINY METAL Dec 21, 2017 $24.99N/A (N/A/68%)0 .. 20,0000%00:00 (00:00)AREA 35, Inc.Sony Music Entertainment (Japan) Inc. / UNTIES
58 Fallen Legion: Rise to Glory Jan 5, 2018 $29.99N/A (N/A/66%)0 .. 20,0000%00:00 (00:00)YummyYummyTummy, MintsphereYummyYummyTummy
59 Masquerada: Songs and Shadows Sep 30, 2016 $6.99N/A (N/A/64%)50,000 .. 100,0000%00:00 (00:00)Witching Hour StudiosYsbryd Games
60 Jagged Alliance: Crossfire Aug 24, 2012 $14.99N/A (N/A/63%)100,000 .. 200,0000%00:00 (00:00)Coreplay GmbHTHQ Nordic
61 Has-Been Heroes Mar 28, 2017 $19.99N/A (N/A/63%)20,000 .. 50,0000%00:00 (00:00)FrozenbyteGameTrust Games
62 Jagged Alliance - Back in Action Feb 8, 2012 $19.99N/A (N/A/62%)200,000 .. 500,0000%00:00 (00:00)Coreplay GmbH, Bigmoon StudiosTHQ Nordic
63 WARSAW Oct 2, 2019 $9.59N/A (N/A/62%)50,000 .. 100,0000%00:00 (00:00)Pixelated MilkPixelated Milk, gaming company
64 The Dwarves Dec 1, 2016 $39.99N/A (N/A/61%)200,000 .. 500,0000%00:00 (00:00)KING ArtTHQ Nordic, EuroVideo Medien
65 Kingdom Under Fire: The Crusaders Feb 28, 2020 $19.99N/A (N/A/60%)20,000 .. 50,0000%00:00 (00:00)BluesideBlueside, Incredi Soft
66 Jagged Alliance: Rage! Dec 6, 2018 $19.99N/A (N/A/59%)50,000 .. 100,0000%00:00 (00:00)Cliffhanger ProductionsHandyGames
67 Prime World: Defenders Jun 5, 2013 $9.99N/A (N/A/58%)100,000 .. 200,0000%00:00 (00:00)NivalNival
68 Black Legend Mar 25, 2021 $29.99N/A (N/A/58%)0 .. 20,0000%00:00 (00:00)WarcaveWarcave
69 Forged of Blood Aug 1, 2019 $29.99N/A (N/A/57%)0 .. 20,0000%00:00 (00:00)Critical ForgeCritical Forge
70 City of the Shroud Aug 9, 2018 N/AN/A (N/A/57%)0 .. 20,0000%00:00 (00:00)Abyssal Arts Ltd.Abyssal Arts Ltd.
71 Tears of Avia Oct 15, 2020 $19.99N/A (N/A/56%)50,000 .. 100,0000%00:00 (00:00)CooCooSqueaky GamesPQube Limited
72 Grimshade Mar 26, 2019 $19.99N/A (N/A/53%)0 .. 20,0000%00:00 (00:00)TALEROCK Asterion Games
73 Confrontation Apr 4, 2012 $9.99N/A (N/A/51%)100,000 .. 200,0000%00:00 (00:00)Cyanide StudioFocus Home Interactive
74 Line Of Defense Tactics - Tactical Advantage Mar 17, 2014 $9.99N/A (N/A/47%)0 .. 20,0000%00:00 (00:00)3000AD3000AD
75 Rime Berta Dec 16, 2014 $14.99N/A (N/A)20,000 .. 50,0000%00:00 (00:00)NEXT-SOFT+PLAYISM
76 Caravaneer 2 Dec 7, 2014 $5.99N/A (N/A)50,000 .. 100,0000%00:00 (00:00)Dmitry ZheltobriukhovDmitry Zheltobriukhov
77 Braveland Wizard Dec 4, 2014 $7.99N/A (N/A)20,000 .. 50,0000%00:00 (00:00)Tortuga TeamTortuga Team
78 Valkyria Chronicles Nov 11, 2014 $19.99N/A (N/A)500,000 .. 1,000,0000%00:00 (00:00)SEGASEGA
79 Sproggiwood Oct 24, 2014 $14.99N/A (N/A)50,000 .. 100,00012.5%02:40 (00:53)Freehold GamesFreehold Games
80 Fantasy Grounds May 9, 2014 $39.99N/A (N/A)50,000 .. 100,0000%00:00 (00:00)SmiteWorks USA, LLCSmiteWorks USA, LLC
81 Heroes of Steel RPG Apr 23, 2014 $9.99N/A (N/A)50,000 .. 100,0000%00:00 (00:00)Trese BrothersTrese Brothers
82 Agarest: Generations of War Zero Apr 17, 2014 $19.99N/A (N/A)50,000 .. 100,0000%00:00 (00:00)Idea FactoryGhostlight LTD
83 Braveland Mar 17, 2014 $6.99N/A (N/A)5,000,000 .. 10,000,0000%00:00 (00:00)Tortuga TeamTortuga Team
84 Agarest: Generations of War Feb 4, 2014 $14.99N/A (N/A)100,000 .. 200,0000%00:00 (00:00)Idea FactoryGhostlight LTD
85 Defender's Quest: Valley of the Forgotten (DX edition) Oct 30, 2012 $14.99N/A (N/A)200,000 .. 500,0000%00:00 (00:00)Level Up Labs, LLCLevel Up Labs
86 Shining Force Jan 26, 2011 $0.99N/A (N/A)0 .. 20,0000%00:00 (00:00)SEGASEGA
87 Shining Force II Jan 26, 2011 $0.99N/A (N/A)0 .. 20,0000%00:00 (00:00)SEGASEGA
88 Knights of the Chalice Aug 10, 2009 $19.99N/A (N/A)0 .. 20,0000%00:00 (00:00)Heroic Fantasy Games Dot ComHeroic Fantasy Games Dot Com
89 Monsters' Den: Book of Dread Jun 1, 2008 $4.99N/A (N/A)100,000 .. 200,0000%00:00 (00:00)MonstrumMonstrum
90 7,62 High Calibre Aug 24, 2007 $4.99N/A (N/A)50,000 .. 100,0000%00:00 (00:00)Apeiron1C Entertainment
91 Magi Mar 21, 2007 $9.99N/A (N/A)0 .. 20,0000%00:00 (00:00)MoaCubeMoaCube
92 Jagged Alliance 2 - Wildfire Mar 8, 2004 $6.99N/A (N/A)500,000 .. 1,000,0000.81%01:47 (00:35)I-deal GamesTopware Interactive
93 NAVYFIELD Mar 18, 2000 FreeN/A (N/A)200,000 .. 500,0000%00:00 (00:00)SDEnterNETNaiadgames
94 Gorky 17 Dec 31, 1999 $4.99N/A (N/A)500,000 .. 1,000,0000%00:00 (00:00)Topware Interactive ACE
95 Jagged Alliance 1: Gold Edition Jun 2, 1994 $9.99N/A (N/A)0 .. 20,00014.29%00:41 (00:13)Sir-Tech, Madlab SoftwareTHQ Nordic
96 Lost Patrol Jun 1, 1991 $5.99N/A (N/A)100,000 .. 200,0000%00:00 (00:00)Shadow DevelopmentPixel Games UK
97 Quintaesencia Oct 17, 2022 FreeN/A (N/A)20,000 .. 50,0000%00:00 (00:00)AngelusAngelus
98 Sentinel: Cursed Knight Aug 10, 2021 $13.99N/A (N/A)50,000 .. 100,0000%00:00 (00:00)NetherstudiosNetherstudios
99 Dark Deity Jun 15, 2021 $19.99N/A (N/A)100,000 .. 200,0000%00:00 (00:00)Sword & Axe LLCFreedom Games
100 Wildermyth Jun 15, 2021 $19.99N/A (N/A)100,000 .. 200,00041.67%04:17 (05:36)Worldwalker Games LLCWorldwalker Games LLC, WhisperGames
101 Rise Eterna Jun 9, 2021 $19.99N/A (N/A)0 .. 20,0000%00:00 (00:00)Makee, Forever Entertainment S. A.Forever Entertainment S. A.
102 The Last Spell Jun 3, 2021 $19.99N/A (N/A)200,000 .. 500,00083.33%17:57 (14:56)Ishtar GamesThe Arcade Crew, Gamera Game
103 Paradigm Shift May 31, 2021 FreeN/A (N/A)20,000 .. 50,0000%00:00 (00:00)PixieBixxie, NUU-Pro, telosLunar Boon
104 Love n War: Warlord by Chance May 28, 2021 $2.99N/A (N/A)50,000 .. 100,0000%00:00 (00:00)Reborn EntertainmentReborn Entertainment
105 Solasta: Crown of the Magister May 27, 2021 $39.99N/A (N/A)200,000 .. 500,00050%72:19 (52:04)Tactical AdventuresTactical Adventures
106 After Off War May 21, 2021 $10.99N/A (N/A)0 .. 20,0000%00:00 (00:00)DAY DAY UP GAMEDAY DAY UP GAME
107 Crystal Raiders VR May 21, 2021 $14.99N/A (N/A)0 .. 20,0000%00:00 (00:00)"Nieko"VRKiwi
108 Fabled Lands May 20, 2021 $14.99N/A (N/A)20,000 .. 50,0000%00:00 (00:00)Prime GamesPrime Games
109 Rise of the Slime May 20, 2021 $14.99N/A (N/A)0 .. 20,0000%00:00 (00:00)Bunkovsky GamesPlaystack
110 The Hand of Merlin May 11, 2021 $24.99N/A (N/A)0 .. 20,0000%00:00 (00:00)Room-C Games, CroteamVersus Evil
111 Giants May 7, 2021 FreeN/A (N/A)50,000 .. 100,0000%00:00 (00:00)Singta inc.Singta Inc.
112 Age of Fear 4: The Iron Killer Apr 30, 2021 $24.99N/A (N/A)0 .. 20,0000%00:00 (00:00)Leslaw SliwkoAge of Fear
113 Obsidian Prince Apr 28, 2021 $14.99N/A (N/A)0 .. 20,0000%00:00 (00:00)Unleash the GiraffeUnleash the Giraffe, Gameclaw Studio
114 Heaven vs Hell Apr 27, 2021 $4.99N/A (N/A)0 .. 20,0000%00:00 (00:00)Neex GamesGreenolor Studio
115 NovaMundi Apr 13, 2021 $12.99N/A (N/A)0 .. 20,0000%00:00 (00:00)Slashware InteractiveSlashware Interactive
116 全战天下 Apr 12, 2021 FreeN/A (N/A)0 .. 20,0000%00:00 (00:00)上海木塞网络科技有限公司上海舒尤网络科技有限公司
117 Strike Team Gladius Apr 8, 2021 $24.99N/A (N/A)0 .. 20,0000%00:00 (00:00)Wave Light Games Inc.Wave Light Games Inc.
118 Magicians' Legacy: Prologue Apr 6, 2021 FreeN/A (N/A)20,000 .. 50,0000%00:00 (00:00)Greenolor StudioGreenolor Studio
119 Colony Ship: A Post-Earth Role Playing Game Apr 6, 2021 $24.99N/A (N/A)20,000 .. 50,0000%00:00 (00:00)Iron Tower StudioIron Tower Studio
120 Chesstle Apr 2, 2021 $14.99N/A (N/A)0 .. 20,0000%00:00 (00:00)Devil Kitty Games, LLCDevil Kitty Games, LLC
121 下一站江湖Ⅰ Apr 1, 2021 $19.99N/A (N/A)0 .. 20,0000%00:00 (00:00)白玉京工作室成都搜发互娱网络科技有限公司
122 Dee-6: Dice Defenders Apr 1, 2021 $4.99N/A (N/A)0 .. 20,0000%00:00 (00:00)KBA3u's factoryKBA3u's factory
123 Apollyon: River of Life Mar 31, 2021 $14.99N/A (N/A)50,000 .. 100,0000%00:00 (00:00)ThuynderThuynder
124 REM Cycles Mar 31, 2021 $14.99N/A (N/A)0 .. 20,0000%00:00 (00:00)Indispensable StudiosIndispensable Studios
125 Dragon Blast - Crazy Action Super Hero Game Mar 26, 2021 $1.99N/A (N/A)0 .. 20,0000%00:00 (00:00)Blazio StudiosUY Studios
126 Heart of Enya Mar 26, 2021 FreeN/A (N/A)20,000 .. 50,0000%00:00 (00:00)Team BapyTeam Bapy
127 Burg Battle Mar 22, 2021 $9.99N/A (N/A)0 .. 20,0000%00:00 (00:00)ElevenSeventy, LLCElevenSeventy, LLC
128 Golden Fall 2 Mar 21, 2021 $5.99N/A (N/A)0 .. 20,0000%00:00 (00:00)Ofer RubinsteinOfer Rubinstein
129 Magellania Mar 18, 2021 $9.99N/A (N/A)50,000 .. 100,0000%00:00 (00:00)Studio LandStudio Land
130 Majestic Trials Mar 11, 2021 $14.99N/A (N/A)20,000 .. 50,0000%00:00 (00:00)Alpha Strike Games LimitedAlpha Strike Games Limited
131 Realm Engine | Virtual Tabletop Mar 5, 2021 FreeN/A (N/A)0 .. 20,0000%00:00 (00:00)Blake JohnsonPixel Ghost
132 ChessLocke Mar 4, 2021 $6.99N/A (N/A)0 .. 20,0000%00:00 (00:00)Taylor "Loxxulus" HattonTaylor "Loxxulus" Hatton
133 Synth War Tactics Mar 2, 2021 $4.99N/A (N/A)0 .. 20,0000%00:00 (00:00)Bryce HochstedlerBryce Hochstedler
134 The Protagonist: EX-1 Mar 2, 2021 $12.99N/A (N/A)20,000 .. 50,0000%00:00 (00:00)3Mind Games3Mind Games
135 Wonhon: Prologue Feb 28, 2021 FreeN/A (N/A)100,000 .. 200,0000%00:00 (00:00)BUSAN SANAI GAMESSuper.com
136 Urtuk: The Desolation Feb 27, 2021 $19.99N/A (N/A)20,000 .. 50,0000%00:00 (00:00)David KaletaDavid Kaleta
137 恐惧之间 Fear surrounds Feb 26, 2021 $7.99N/A (N/A)200,000 .. 500,00016.67%01:01 (00:20)SaltyEgg StudioSaltyEgg Studio
138 Wartune Reborn Feb 26, 2021 FreeN/A (N/A)50,000 .. 100,0000%00:00 (00:00)7Road7Road
139 Kitty Tactics Feb 24, 2021 $3.99N/A (N/A)20,000 .. 50,0000%00:00 (00:00)Ibe DenauxIbe Denaux
140 Avalom: Ancestral Heroes Feb 21, 2021 $17.99N/A (N/A)0 .. 20,0000%00:00 (00:00)WAGNER ROCHAINDIE
141 Might is Right Feb 19, 2021 $14.99N/A (N/A)0 .. 20,0000%00:00 (00:00)Lazy KittyLazy Kitty
142 Steven Universe: Unleash the Light Feb 19, 2021 $24.99N/A (N/A)50,000 .. 100,0000%00:00 (00:00)Grumpyface StudiosCartoon Network Games
143 Ultimate ADOM - Caverns of Chaos Feb 18, 2021 $19.99N/A (N/A)20,000 .. 50,0000%00:00 (00:00)Thomas Biskup, Jochen Terstiege, Krzysztof Dycha, Lucas Dieguez, Bastian von Gostomski, Carola Sochiera, Björn LoesingAssemble Entertainment, WhisperGames
144 Sid Classic Feb 18, 2021 FreeN/A (N/A)0 .. 20,0000%00:00 (00:00)Singta inc.Way2Bit
145 Shores Unknown Feb 17, 2021 $19.99N/A (N/A)0 .. 20,0000%00:00 (00:00)VallynneHitcents
146 Bravery Network Online Feb 16, 2021 $24.99N/A (N/A)0 .. 20,0000%00:00 (00:00)GLOAMGLOAM
147 ROGUERIA: Roguelikes X Tactics Feb 13, 2021 $14.49N/A (N/A)0 .. 20,0000%00:00 (00:00)Waxycorn Studio.Waxycorn Studio.
148 CELLAR | Rags and Knife Feb 10, 2021 $7.99N/A (N/A)20,000 .. 50,0000%00:00 (00:00)Pavel DivnenkoPavel Divnenko
149 Magical Battle Cry Feb 8, 2021 $5.99N/A (N/A)20,000 .. 50,0000%00:00 (00:00)Yang ChenYang Chen
150 修真之路 Feb 6, 2021 FreeN/A (N/A)0 .. 20,0000%00:00 (00:00)游韵游戏网络公司游韵游戏网络公司
151 Cartridge Monsters Feb 4, 2021 $4.49N/A (N/A)20,000 .. 50,0000%00:00 (00:00)Happenstance GamesHappenstance Games
152 Fractalis Feb 2, 2021 $7.99N/A (N/A)20,000 .. 50,0000%00:00 (00:00)Revolutionary InteractiveRevolutionary Interactive
153 Ultimate Survivor Feb 2, 2021 $1.99N/A (N/A)0 .. 20,0000%00:00 (00:00)LiZhengLiZheng
154 Text RPG Feb 1, 2021 $2.99N/A (N/A)20,000 .. 50,0000%00:00 (00:00)LongerGamesStudioLongerGamesStudio
155 Red Hands – 2-Player Game Jan 29, 2021 $4.99N/A (N/A)0 .. 20,0000%00:00 (00:00)PeakselPeaksel
156 Warriors: Rise to Glory! Online Multiplayer Open Beta Jan 28, 2021 FreeN/A (N/A)20,000 .. 50,0000%00:00 (00:00)Gavra GamesGavra Games
157 鬼谷八荒 Jan 27, 2021 $19.99N/A (N/A)10,000,000 .. 20,000,0007.04%23:49 (70:51)鬼谷工作室鬼谷工作室, Lightning Games
158 King Arthur: Knight's Tale Jan 26, 2021 $34.99N/A (N/A)0 .. 20,0000%00:00 (00:00)NeocoreGamesNeocoreGames
159 Utawarerumono: Prelude to the Fallen Jan 22, 2021 $59.99N/A (N/A)0 .. 20,0000%00:00 (00:00)AQUAPLUSDMM GAMES, Shiravune
160 Lethal Running Jan 15, 2021 $17.99N/A (N/A)0 .. 20,0000%00:00 (00:00)voodoosoftvoodoosoft
161 Gemini Strategy Origin Jan 13, 2021 $4.99N/A (N/A)0 .. 20,0000%00:00 (00:00)Gemini Stars GamesHappy Max
162 Heroes of the Three Kingdoms 8 Jan 12, 2021 $29.99N/A (N/A)100,000 .. 200,0000%00:00 (00:00)USERJOY Technology Co.,Ltd.USERJOY Technology Co.,Ltd.
163 Content Creator's Internet Adventure Jan 10, 2021 $9.99N/A (N/A)0 .. 20,0000%00:00 (00:00)James R TrimbleSaladite Games
164 Shards of Feyra Jan 10, 2021 $6.99N/A (N/A)0 .. 20,0000%00:00 (00:00)Feyra OnlineFeyra Online
165 列传:革新战争 Jan 7, 2021 $16.99N/A (N/A)0 .. 20,0000%00:00 (00:00)Ash Game StudioAsh Game Studio
166 Space Cats Tactics: Prologue Jan 1, 2021 FreeN/A (N/A)20,000 .. 50,0000%00:00 (00:00)Mitzi GamesMitzi Games
167 Realms of Antiquity: The Shattered Crown Dec 29, 2020 $20N/A (N/A)0 .. 20,0000%00:00 (00:00)Adam HaaseQuixotic Software
168 ZombieWave-UnlimitedChallenges Dec 20, 2020 $1.99N/A (N/A)100,000 .. 200,0000%00:00 (00:00)AlloyStoveAlloyStove
169 Sink Again Dec 17, 2020 $9.99N/A (N/A)20,000 .. 50,0000%00:00 (00:00)FlatcoonFlatcoon
170 Terra Randoma Dec 17, 2020 $14.99N/A (N/A)0 .. 20,0000%00:00 (00:00)Deniz K.Deniz K.
171 Unsung Story Dec 17, 2020 $29.99N/A (N/A)0 .. 20,0000%00:00 (00:00)Little OrbitLittle Orbit
172 Slaves of Magic prelude Dec 14, 2020 FreeN/A (N/A)50,000 .. 100,0000%00:00 (00:00)Amethyst DreamersAmethyst Dreamers
173 ARCANIUM: Rise of Akhan Dec 8, 2020 $16.99N/A (N/A)0 .. 20,0000%00:00 (00:00)Supercombo, Inc.Rogue Games, Inc.
174 Grim wanderings 2 Dec 7, 2020 $5.99N/A (N/A)50,000 .. 100,0000%00:00 (00:00)Ellinia gamesEllinia games
175 Guildmaster: Gratuitous Subtitle Dec 7, 2020 $13.99N/A (N/A)0 .. 20,0000%00:00 (00:00)Jim Makes GamesJim Makes Games
176 Grid Fight - Mask of the Goddess - First Boot Dec 7, 2020 N/AN/A (N/A)0 .. 20,0000%00:00 (00:00)Playtra GamesPlaytra Games
177 Ruinverse Dec 3, 2020 $14.99N/A (N/A)0 .. 20,0000%00:00 (00:00)Exe Create Inc.KEMCO
178 Mini War - Three Kingdoms Nov 30, 2020 $0.99N/A (N/A)0 .. 20,0000%00:00 (00:00)YangZeyuYangZeyu
179 911 Emergency Manager Nov 20, 2020 N/AN/A (N/A)20,000 .. 50,0000%00:00 (00:00)GoodZeit UGGoodZeit UG
180 Kilta Nov 20, 2020 $12.99N/A (N/A)0 .. 20,0000%00:00 (00:00)myTrueSoundmyTrueSound
181 Eterna: Heroes Fall Nov 19, 2020 $24.99N/A (N/A)0 .. 20,0000%00:00 (00:00)Zu DigitalZu Digital
182 Eldrador Creatures Nov 19, 2020 $19.99N/A (N/A)0 .. 20,0000%00:00 (00:00)Independent Arts Software GmbHWild River Games
183 Raiders! Forsaken Earth Nov 10, 2020 $19.99N/A (N/A)20,000 .. 50,0000%00:00 (00:00)Creative Storm EntertainmentCreativeForge Games
184 Myth Bearer Nov 10, 2020 $2.99N/A (N/A)0 .. 20,0000%00:00 (00:00)JC BaileyJC Bailey
185 Crystal Ortha Nov 5, 2020 $14.99N/A (N/A)20,000 .. 50,0000%00:00 (00:00)Hit-Point Co.,Ltd.KEMCO
186 Fantasy Grounds Unity Nov 5, 2020 $39.99N/A (N/A)20,000 .. 50,0000%00:00 (00:00)SmiteWorks USA, LLCSmiteWorks USA, LLC
187 Pest Control Nov 5, 2020 $11.99N/A (N/A)0 .. 20,0000%00:00 (00:00)EON46Ritual Interactive
188 Battle Hunters Nov 4, 2020 $14.99N/A (N/A)0 .. 20,0000%00:00 (00:00)Phase Two Games Pty. Ltd.Phase Two Games Pty. Ltd.
189 Kingdom Of Force Nov 1, 2020 $6.99N/A (N/A)0 .. 20,0000%00:00 (00:00)Beijing Hydra Technology Co., Ltd.Beijing Hydra Technology Co., Ltd.
190 REALITY Oct 30, 2020 $0.49N/A (N/A)0 .. 20,0000%00:00 (00:00)LunaRolexLerLunaRolexLer
191 Aegis Online Oct 30, 2020 FreeN/A (N/A)0 .. 20,0000%00:00 (00:00)Kale the QuickEaster Egg Productions
192 October Night Games Oct 29, 2020 $15.99N/A (N/A)0 .. 20,0000%00:00 (00:00)Octobear Knight GamesWhisperGames
193 Frag Oct 29, 2020 $5.99N/A (N/A)0 .. 20,0000%00:00 (00:00)ZuleZule
194 The Last Spell: Prologue Oct 29, 2020 N/AN/A (N/A)100,000 .. 200,0000%00:00 (00:00)Ishtar GamesThe Arcade Crew, Gamera Game (China)
195 Arcante Oct 27, 2020 $11.99N/A (N/A)20,000 .. 50,0000%00:00 (00:00)Luca FavanoLuca Favano
196 Dread Nautical Oct 27, 2020 $19.99N/A (N/A)0 .. 20,0000%00:00 (00:00)Zen StudiosZen Studios
197 Clouds of Rain Oct 23, 2020 $13.99N/A (N/A)20,000 .. 50,0000%00:00 (00:00)Graphic Line GamesGraphic Line Games
198 Mystic Hammer Oct 23, 2020 $4.99N/A (N/A)0 .. 20,0000%00:00 (00:00)PozziSoftPozziSoft
199 The Dungeon Beneath Oct 23, 2020 $14.99N/A (N/A)0 .. 20,0000%00:00 (00:00)Puzzle Box GamesPuzzle Box Games
200 AbsentedAge: Squarebound Oct 23, 2020 $12.99N/A (N/A)50,000 .. 100,0000%00:00 (00:00)terunon's Labterunon's Lab
201 TRANSFORMERS: BATTLEGROUNDS Oct 22, 2020 $39.99N/A (N/A)0 .. 20,0000%00:00 (00:00)CoatsinkOutright Games Ltd.
202 Tenderfoot Tactics Oct 21, 2020 $24.99N/A (N/A)0 .. 20,0000%00:00 (00:00)Badru, Michael Bell, Isa Hutchinson, Taylor Thomas, Zoe Vartanian, Madison PatheIce Water Games
203 This Is Not Chess Oct 20, 2020 $7.99N/A (N/A)20,000 .. 50,0000%00:00 (00:00)Courtney DawsonCourtney Dawson
204 Kingdom Rush Vengeance - Tower Defense Oct 15, 2020 $19.99N/A (N/A)100,000 .. 200,0000%00:00 (00:00)Ironhide Game StudioIronhide Game Studio
205 Partisans 1941 Oct 14, 2020 $29.99N/A (N/A)200,000 .. 500,0000%00:00 (00:00)Alter GamesDaedalic Entertainment
206 Dragon Lapis Oct 1, 2020 $14.99N/A (N/A)0 .. 20,0000%00:00 (00:00)Exe Create Inc.KEMCO
207 Dust to the End Sep 29, 2020 $8.99N/A (N/A)50,000 .. 100,0000%00:00 (00:00)Haojoy Game, Zjoy GameHaojoy Game
208 蜀山幻剑录 Sword of Shushan Sep 24, 2020 $9.99N/A (N/A)0 .. 20,0000%00:00 (00:00)星罗云布工作室星罗云布工作室
209 Spacer: Legacies Sep 23, 2020 $18.99N/A (N/A)0 .. 20,0000%00:00 (00:00)Brazen LegionsBrazen Legions
210 Infectra Sep 22, 2020 $4.99N/A (N/A)0 .. 20,0000%00:00 (00:00)Boar-in-gamesBoar-in-games
211 A Gay Love Story About Gay Love Sep 14, 2020 $0.99N/A (N/A)0 .. 20,0000%00:00 (00:00)Sigyaad TeamSigyaad Team
212 Disgaea 4 Complete+ Sep 10, 2020 $39.99N/A (N/A)20,000 .. 50,0000%00:00 (00:00)Nippon Ichi Software, Inc.NIS America, Inc.
213 Necromunda: Underhive Wars Sep 7, 2020 $39.99N/A (N/A)50,000 .. 100,0000%00:00 (00:00)Rogue FactorFocus Home Interactive
214 Final Hope: The Plot Sep 3, 2020 $5.99N/A (N/A)0 .. 20,0000%00:00 (00:00)Djamp GamesDjamp Games
215 Hell Pub Sep 1, 2020 $1.99N/A (N/A)0 .. 20,0000%00:00 (00:00)BJ StudioBJ Studio
216 Time Break Chronicles Sep 1, 2020 $14.99N/A (N/A)50,000 .. 100,0000%00:00 (00:00)Warrior General Games, LLCWarrior General Games, LLC
217 Liege Dragon Aug 30, 2020 $14.99N/A (N/A)100,000 .. 200,0000%00:00 (00:00)Exe Create Inc.KEMCO
218 经天纪 Aug 23, 2020 $9.99N/A (N/A)20,000 .. 50,0000%00:00 (00:00)神经虾工作组欢乐不二
219 POLICE RESPONSE VR : DISTURBANCE Aug 21, 2020 $2.99N/A (N/A)0 .. 20,0000%00:00 (00:00)CALTAIN VR LtdCALTAIN VR Ltd
220 For the People Aug 13, 2020 $16.99N/A (N/A)20,000 .. 50,0000%00:00 (00:00)Brezg Studio101XP
221 Battle Sweeper Aug 13, 2020 $4.99N/A (N/A)0 .. 20,0000%00:00 (00:00)AlpaSun GamesAlpaSun Games
222 Canon - Legend of the New Gods Aug 7, 2020 $11.99N/A (N/A)0 .. 20,0000%00:00 (00:00)Super Fighter TeamPiko Interactive
223 Warriors of the Nile Aug 7, 2020 $12.99N/A (N/A)100,000 .. 200,0000%00:00 (00:00)Stove StudioGamera Game
224 Dungeon & Derision Aug 6, 2020 FreeN/A (N/A)0 .. 20,0000%00:00 (00:00)Alexis AngelyAlexis Angely
225 Aye Aye, Captain Aug 4, 2020 $2.99N/A (N/A)0 .. 20,0000%00:00 (00:00)North State GamesNorth State Games
226 Westminster Darkly Aug 1, 2020 $11.99N/A (N/A)0 .. 20,0000%00:00 (00:00)Studio IncorrectStudio Incorrect
227 Chicken Bomb Jul 29, 2020 $0.99N/A (N/A)0 .. 20,0000%00:00 (00:00)GoesSoftGoesSoft
228 100-Level Dungeon Jul 23, 2020 $1.99N/A (N/A)0 .. 20,0000%00:00 (00:00)Jonathan.SJonathan.S
229 大千世界 Jul 17, 2020 $3.99N/A (N/A)100,000 .. 200,0000%00:00 (00:00)滑稽工作室滑稽工作室
230 最后的大法师 光明之旅(Last Archmage Journey of Light) Jul 16, 2020 $6.99N/A (N/A)20,000 .. 50,0000%00:00 (00:00)Flying Star GamesFlying Star Games
231 AVRACH RESURRECTION Jul 15, 2020 $9.99N/A (N/A)50,000 .. 100,0000%00:00 (00:00)Fluffy BisonsFluffy Bisons
232 8-Bit Attack Jul 15, 2020 FreeN/A (N/A)0 .. 20,0000%00:00 (00:00)Startale Games, Petersen GamesStartale Games
233 Dark Bestiary Jul 12, 2020 $11.99N/A (N/A)20,000 .. 50,0000%00:00 (00:00)QdQd
234 ARIA CHRONICLE Jul 12, 2020 $17.99N/A (N/A)50,000 .. 100,0000%00:00 (00:00)STUDIO N9CREST
235 Little Town Hero Jul 9, 2020 $24.99N/A (N/A)0 .. 20,0000%00:00 (00:00)GAME FREAK inc.GAME FREAK inc.
236 DF-41 Simulator Jul 7, 2020 FreeN/A (N/A)0 .. 20,0000%00:00 (00:00)Bo ChenBo Chen
237 Apprentice Arriving Jul 7, 2020 $12.99N/A (N/A)100,000 .. 200,0000%00:00 (00:00)Jewel Seeker EntertainmentJewel Seeker Entertainment
238 Stellaren II Jul 5, 2020 $3.99N/A (N/A)0 .. 20,0000%00:00 (00:00)nineduxninedux
239 Guile & Glory: Firstborn Jul 3, 2020 $9.99N/A (N/A)0 .. 20,0000%00:00 (00:00)Elston StudiosElston Studios
240 Droid Guier Jun 30, 2020 $2.99N/A (N/A)0 .. 20,0000%00:00 (00:00)Caztellary StudioCaztellary Studio
241 Angels on Tanks Jun 23, 2020 $14.99N/A (N/A)0 .. 20,0000%00:00 (00:00)Ninju GamesNinju Games
242 The falling tower Jun 23, 2020 FreeN/A (N/A)0 .. 20,0000%00:00 (00:00)CarotaaDream Night Studio
243 DungeonTop Jun 21, 2020 $15.99N/A (N/A)0 .. 20,0000%00:00 (00:00)One Up Plus EntertainmentOne Up Plus Entertainment, Surefire.Games
244 The Waylanders Jun 16, 2020 $34.99N/A (N/A)0 .. 20,0000%00:00 (00:00)GATO STUDIOGATO STUDIO
245 WARBORN Jun 12, 2020 $24.99N/A (N/A)0 .. 20,0000%00:00 (00:00)Raredrop Games LtdPQube Limited
246 The Dungeon Paradox Jun 2, 2020 $14.99N/A (N/A)0 .. 20,0000%00:00 (00:00)Digital SoftwareDigital Software
247 Tales Of Glory May 30, 2020 $29.99N/A (N/A)0 .. 20,0000%00:00 (00:00)BlackTale GamesBlackTale Games
248 Hopebringers May 25, 2020 FreeN/A (N/A)0 .. 20,0000%00:00 (00:00)Critical Miss GamesCritical Miss Games
249 Strategic Mind: Blitzkrieg May 22, 2020 $39.99N/A (N/A)0 .. 20,0000%00:00 (00:00)Starni GamesStarni Games
250 Moonfall May 20, 2020 $4.99N/A (N/A)0 .. 20,0000%00:00 (00:00)Zak AmanaZak Amana
251 Boston AInamics May 18, 2020 $9.99N/A (N/A)0 .. 20,0000%00:00 (00:00)Boston AInamicsBoston AInamics
252 Rise of the Foederati May 4, 2020 $8.9N/A (N/A)0 .. 20,0000%00:00 (00:00)Genos StudiosGenos Studios
253 Familia May 1, 2020 $4.99N/A (N/A)0 .. 20,0000%00:00 (00:00)Joseph AbrahamMaui Game Studio
254 Zoria: Age of Shattering Prologue Apr 30, 2020 FreeN/A (N/A)50,000 .. 100,0000%00:00 (00:00)Tiny Trinket GamesTiny Trinket Games
255 Koi Unleashed Apr 29, 2020 $15.99N/A (N/A)0 .. 20,0000%00:00 (00:00)Wild GripWild Grip
256 Prime & Load : 1776 Apr 25, 2020 $7.99N/A (N/A)0 .. 20,0000%00:00 (00:00)Radio Silence EntertainmentRadio Silence Entertainment
257 XCOM: Chimera Squad Apr 23, 2020 $19.99N/A (N/A)500,000 .. 1,000,0004.88%20:20 (13:33)Firaxis Games2K
258 TROUBLESHOOTER: Abandoned Children Apr 23, 2020 $24.99N/A (N/A)200,000 .. 500,0000%00:00 (00:00)DandylionDandylion
259 Warhammer Underworlds: Online Apr 21, 2020 $9.99N/A (N/A)20,000 .. 50,0000.55%00:02 (00:00)Steel Sky ProductionsSteel Sky Productions
260 Survival Africa Apr 17, 2020 $16.99N/A (N/A)0 .. 20,0000%00:00 (00:00)Dean ThomasMeanDean Gaming
261 Fates of Ort Mar 31, 2020 $14.99N/A (N/A)0 .. 20,0000%00:00 (00:00)8BitSkull8BitSkull
262 Treachery in Beatdown City Mar 30, 2020 $19.99N/A (N/A)0 .. 20,0000%00:00 (00:00)Nuchallenger, HurakanWorksNuchallenger
263 Lovehammer 400 000: The Buttlerian Crusade Mar 27, 2020 $14.99N/A (N/A)0 .. 20,0000%00:00 (00:00)Nerd Commando Game StudiosNerd Commando Game Studios
264 Bonfire Mar 26, 2020 $17.99N/A (N/A)0 .. 20,0000%00:00 (00:00)MoaCubeMoaCube
265 Grand Guilds Mar 26, 2020 $19.99N/A (N/A)0 .. 20,0000%00:00 (00:00)Drix StudiosDrix Studios
266 Iron Danger Mar 25, 2020 $19.99N/A (N/A)0 .. 20,0000%00:00 (00:00)Action Squad StudiosDaedalic Entertainment
267 Battle for Esturia Mar 20, 2020 $9.99N/A (N/A)0 .. 20,0000%00:00 (00:00)Esturia GamesEsturia Games
268 Horizon's Gate Mar 9, 2020 $19.99N/A (N/A)20,000 .. 50,0000%00:00 (00:00)Rad CodexRad Codex
269 Frontline: Panzer Blitzkrieg! Mar 6, 2020 $9.99N/A (N/A)0 .. 20,0000%00:00 (00:00)Frontline: Games SeriesFrontline: Games Series
270 INFILTRIA Mar 3, 2020 N/AN/A (N/A)0 .. 20,0000%00:00 (00:00)sectuZNETsectuZ.NET
271 Wasteland Remastered Feb 25, 2020 $14.99N/A (N/A)0 .. 20,0000%00:00 (00:00)inXile Entertainment, Krome StudiosinXile Entertainment
272 Battlecraft - Tactics Online Feb 10, 2020 FreeN/A (N/A)0 .. 20,0000%00:00 (00:00)Sigil EntertainmentSigil Entertainment
273 RaidTitans Feb 6, 2020 $8.99N/A (N/A)0 .. 20,0000%00:00 (00:00)RainbowStudioRainbowStudio
274 Mortal Glory Jan 29, 2020 $7.99N/A (N/A)50,000 .. 100,0000%00:00 (00:00)Redbeak GamesRedbeak Games
275 浮世万千之前世今生 Jan 28, 2020 $10.99N/A (N/A)0 .. 20,0000%00:00 (00:00)飞天大胖喵飞天大胖喵
276 Der Geisterturm / The Ghost Tower Jan 23, 2020 $14.99N/A (N/A)0 .. 20,0000%00:00 (00:00)Graverobber FoundationGraverobber Foundation
277 Utawarerumono: Mask of Deception Jan 23, 2020 $39.99N/A (N/A)20,000 .. 50,0000%00:00 (00:00)AQUAPLUSDMM GAMES, Shiravune
278 Utawarerumono: Mask of Truth Jan 23, 2020 $39.99N/A (N/A)0 .. 20,0000%00:00 (00:00)AQUAPLUSDMM GAMES, Shiravune
279 Graywalkers: Purgatory Jan 15, 2020 $24.99N/A (N/A)0 .. 20,0000%00:00 (00:00)Dreamlords Digital Inc.Dreamlords Digital Inc.
280 ReversiQuest2 Jan 6, 2020 N/AN/A (N/A)0 .. 20,0000%00:00 (00:00)YokogosystemsYokogosystems
281 Vestaria Saga I: War of the Scions Dec 27, 2019 $19.99N/A (N/A)20,000 .. 50,0000%00:00 (00:00)Vestaria ProjectDANGEN Entertainment, Gamera Game
282 Dinodrifters Dec 20, 2019 $9.99N/A (N/A)0 .. 20,0000%00:00 (00:00)Jake Hugh Reece WilsonTrywelyn Productions
283 Z Dawn Dec 6, 2019 $9.99N/A (N/A)20,000 .. 50,0000%00:00 (00:00)GoldenGod GamesGoldenGod Games
284 Day of Dragons Dec 4, 2019 $19.99N/A (N/A)50,000 .. 100,0000%00:00 (00:00)Beawesome GamesBeawesome Games
285 Dandy Dungeon - Legend of Brave Yamada - Nov 28, 2019 $18.99N/A (N/A)0 .. 20,0000%00:00 (00:00)Onion GamesOnion Games
286 Steam Marines 2 Nov 20, 2019 $24.99N/A (N/A)0 .. 20,0000%00:00 (00:00)Worthless BumsWorthless Bums
287 Time For Quest Nov 14, 2019 $7.99N/A (N/A)0 .. 20,0000%00:00 (00:00)Blacer Studio, Nikodem SwiderSource Byte Sp. z o.o., Blacer Studio
288 Game of Thrones Winter is Coming Nov 14, 2019 FreeN/A (N/A)200,000 .. 500,0000%00:00 (00:00)YOUZU (SINGAPORE) PTE. LTD.YOUZU (SINGAPORE) PTE. LTD.
289 Albedon Wars Nov 7, 2019 $24.99N/A (N/A)0 .. 20,0000%00:00 (00:00)Firemill GamesFiremill Games
290 Dawn of the Dragons: Ascension Nov 1, 2019 FreeN/A (N/A)20,000 .. 50,0000%00:00 (00:00)5th Planet Games Development ApS5th Planet Games Development ApS
291 Time of the Moon Nov 1, 2019 $9.99N/A (N/A)0 .. 20,0000%00:00 (00:00)DawnfoxDawnfox
292 Strategic Mind: The Pacific Oct 25, 2019 $29.99N/A (N/A)50,000 .. 100,0000%00:00 (00:00)Starni GamesStarni Games
293 Lakeview Valley Oct 22, 2019 $14.99N/A (N/A)20,000 .. 50,0000%00:00 (00:00)Roope TamminenRoope Tamminen
294 Balance Breakers Sep 27, 2019 $16.99N/A (N/A)0 .. 20,0000%00:00 (00:00)Gamestry LabGamestry Lab
295 Braveland Heroes Sep 16, 2019 FreeN/A (N/A)50,000 .. 100,0000%00:00 (00:00)Tortuga TeamTortuga Team
296 Royal Merchant Sep 11, 2019 $9.99N/A (N/A)0 .. 20,0000%00:00 (00:00)BadimBadim
297 First Day Sep 1, 2019 $19.99N/A (N/A)0 .. 20,0000%00:00 (00:00)BadWolf GamesBadWolf Games
298 RogueVerse Aug 22, 2019 $9.99N/A (N/A)0 .. 20,0000%00:00 (00:00)FoumartGamesFoumartGames
299 Dungeon Scavenger Aug 21, 2019 $7.99N/A (N/A)50,000 .. 100,0000%00:00 (00:00)Vidama Software LLCVidama Software LLC
300 Tactics V: "Obsidian Brigade" Aug 8, 2019 $19.99N/A (N/A)0 .. 20,0000%00:00 (00:00)From Nothing Game StudiosFrom Nothing Game Studios
301 《鬼畜战记:金坷垃传说》 Jul 26, 2019 FreeN/A (N/A)20,000 .. 50,0000%00:00 (00:00)小闲小闲
302 Dead Hand Jul 26, 2019 $19.99N/A (N/A)0 .. 20,0000%00:00 (00:00)One Man Army GamesOne Man Army Games
303 To Battle!: Hell's Crusade Jul 24, 2019 $8.99N/A (N/A)0 .. 20,0000%00:00 (00:00)Filthy Peasant GamesFilthy Peasant Games
304 Gythol Granditti: The Crypt of Darkness Jul 19, 2019 FreeN/A (N/A)20,000 .. 50,0000%00:00 (00:00)GZ StormGZ Storm
305 Gloomhaven Jul 17, 2019 $24.99N/A (N/A)100,000 .. 200,0000%00:00 (00:00)Flaming Fowl StudiosAsmodee Digital
306 Golden Fall Jun 14, 2019 $1.99N/A (N/A)0 .. 20,0000%00:00 (00:00)Ofer RubinsteinOfer Rubinstein
307 GOD WARS The Complete Legend Jun 13, 2019 $29.99N/A (N/A)0 .. 20,0000%00:00 (00:00)KADOKAWA GAMES, LTD.KADOKAWA GAMES, LTD.
308 Age of Fear: The Undead King GOLD Jun 11, 2019 $24.99N/A (N/A)0 .. 20,0000%00:00 (00:00)Leslaw SliwkoAge of Fear
309 Cardlings Jun 5, 2019 $1.24N/A (N/A)0 .. 20,0000%00:00 (00:00)Clockwork ChilliClockwork Chilli
310 Between the Stars May 28, 2019 $29.99N/A (N/A)50,000 .. 100,0000%00:00 (00:00)Isolated GamesIsolated Games, Poysky Productions, WhisperGames
311 圣女战旗 Banner of the Maid May 27, 2019 $16.99N/A (N/A)200,000 .. 500,00025%02:43 (01:48)Azure Flame StudioCE-Asia
312 Idle Portal Guardian May 21, 2019 $2.99N/A (N/A)0 .. 20,0000%00:00 (00:00)ThejamiryuThejamiryu Inc.
313 Light Fairytale Episode 1 May 13, 2019 $9.99N/A (N/A)20,000 .. 50,0000%00:00 (00:00)neko.worksneko.works
314 Goblin Squad - Total Division May 10, 2019 N/AN/A (N/A)0 .. 20,0000%00:00 (00:00)Event Horizon Studios34BigThings srl
315 UBOAT Apr 30, 2019 $29.99N/A (N/A)200,000 .. 500,00014.29%01:38 (00:44)Deep Water StudioPlayWay S.A.
316 Legend of Cina Mar 29, 2019 $5.99N/A (N/A)0 .. 20,0000%00:00 (00:00)YunkaiYunkai
317 Margonem Feb 20, 2019 FreeN/A (N/A)0 .. 20,0000%00:00 (00:00)GarmoryGarmory
318 Monads Feb 15, 2019 $9.99N/A (N/A)0 .. 20,0000%00:00 (00:00)Team MonadPsychoFlux Entertainment
319 Element Space Feb 14, 2019 $24.99N/A (N/A)0 .. 20,0000%00:00 (00:00)Sixth VowelInca Games
320 Euclidean Skies Feb 5, 2019 $0.99N/A (N/A)0 .. 20,0000%00:00 (00:00)Miro StrakaMiro Straka
321 Dragon Iris Feb 1, 2019 $1.99N/A (N/A)0 .. 20,0000%00:00 (00:00)Leonardo M A SilvaConsttelattions
322 Nomads of the Fallen Star Jan 30, 2019 $12.99N/A (N/A)0 .. 20,0000%00:00 (00:00)Huy PhanHuy Phan
323 Rogue Empire: Dungeon Crawler RPG Jan 25, 2019 $11.24N/A (N/A)0 .. 20,0000%00:00 (00:00)Portal EntertainmentPortal Entertainment
324 Age of Fear: The Free World Jan 18, 2019 FreeN/A (N/A)100,000 .. 200,0000%00:00 (00:00)Leslaw SliwkoAge of Fear
325 Chaordic Dec 17, 2018 FreeN/A (N/A)0 .. 20,0000%00:00 (00:00)Artepi CorporationArtepi Corporation
326 Shieldwall Chronicles: Swords of the North Dec 16, 2018 $14.99N/A (N/A)0 .. 20,0000%00:00 (00:00)Wave Light Games Inc.Wave Light Games Inc.
327 Ancient Frontier: Steel Shadows Dec 11, 2018 $14.99N/A (N/A)0 .. 20,0000%00:00 (00:00)Fair Weather Studios, LLCFair Weather Studios, LLC
328 Disgaea 5 Complete Oct 22, 2018 $39.99N/A (N/A)100,000 .. 200,0000%00:00 (00:00)Nippon Ichi Software, Inc.NIS America, Inc.
329 Vigilantes Oct 3, 2018 $14.99N/A (N/A)0 .. 20,0000%00:00 (00:00)Timeslip SoftworksTimeslip Softworks
330 Depth of Extinction Sep 27, 2018 $14.99N/A (N/A)0 .. 20,0000%00:00 (00:00)HOF StudiosHOF Studios
331 Das Geisterschiff / The Ghost Ship Sep 19, 2018 $3.99N/A (N/A)20,000 .. 50,0000%00:00 (00:00)Graverobber FoundationGraverobber Foundation
332 SFD : Rogue TRPG Aug 17, 2018 $7.99N/A (N/A)0 .. 20,0000%00:00 (00:00)icefillicefill
333 Dustwind Aug 15, 2018 $24.99N/A (N/A)20,000 .. 50,0000%00:00 (00:00)Dustwind StudiosZ-Software GmbH, Dustwind Studios
334 Sword Legacy: Omen Aug 13, 2018 $17.99N/A (N/A)20,000 .. 50,0000%00:00 (00:00)Firecast Studio, Fableware Narrative DesignTeam17 Digital Ltd
335 Star Traders: Frontiers Jul 31, 2018 $14.99N/A (N/A)100,000 .. 200,0000%00:00 (00:00)Trese BrothersTrese Brothers
336 Throw Anything Jul 26, 2018 $16.99N/A (N/A)0 .. 20,0000%00:00 (00:00)Visual LightVisual Light
337 Ganbare! Super Strikers Jul 26, 2018 $9.99N/A (N/A)0 .. 20,0000%00:00 (00:00)reserese
338 The Chronicles of Quiver Dick Jul 9, 2018 $2.99N/A (N/A)20,000 .. 50,0000%00:00 (00:00)Crankage GamesCrankage Games
339 Dungeon Deathball Jul 6, 2018 $9.99N/A (N/A)20,000 .. 50,0000%00:00 (00:00)Matt GlanvilleMatt Glanville
340 Lost Legend Jul 2, 2018 $2.99N/A (N/A)20,000 .. 50,0000%00:00 (00:00)Unhinged LLCUnhinged LLC
341 Anima: Gate of Memories - The Nameless Chronicles Jun 19, 2018 $19.99N/A (N/A)0 .. 20,0000%00:00 (00:00)Anima ProjectBadLand Publishing
342 Find & Destroy: Tank Strategy Jun 12, 2018 FreeN/A (N/A)20,000 .. 50,0000%00:00 (00:00)mPower Games StudiomPower Games Studio
343 Spaceship Commander May 23, 2018 $9.99N/A (N/A)0 .. 20,0000%00:00 (00:00)Sokolov Yaroslav VladimirovichSokolov Yaroslav Vladimirovich
344 Bastard May 14, 2018 $8.99N/A (N/A)50,000 .. 100,0000%00:00 (00:00)Aterdux EntertainmentAterdux Entertainment
345 Demon's Rise - War for the Deep Apr 29, 2018 $6.99N/A (N/A)0 .. 20,0000%00:00 (00:00)Wave Light Games Inc.Wave Light Games Inc.
346 Demon's Rise - Lords of Chaos Apr 24, 2018 $6.99N/A (N/A)20,000 .. 50,0000%00:00 (00:00)Wave Light Games Inc.Wave Light Games Inc.
347 Tactics & Strategy Master:Joan of Arc Mar 28, 2018 $1.99N/A (N/A)0 .. 20,0000%00:00 (00:00)Gemini Stars GamesGemini Stars Games
348 Ambition of the Slimes Feb 15, 2018 $4.99N/A (N/A)20,000 .. 50,0000%00:00 (00:00)altairworksFlyhigh Works, CIRCLE Entertainment
349 Necromancer Returns Feb 1, 2018 $9.99N/A (N/A)0 .. 20,0000%00:00 (00:00)Greenolor StudioGreenolor Studio
350 Tactical Monsters Rumble Arena Jan 31, 2018 FreeN/A (N/A)200,000 .. 500,0000%00:00 (00:00)Camex GamesCamex Games
351 Stream Battlecards Jan 28, 2018 $9.99N/A (N/A)0 .. 20,0000%00:00 (00:00)Pascal DittrichpadSoft
352 Once upon a Dungeon Jan 19, 2018 $4.99N/A (N/A)0 .. 20,0000%00:00 (00:00)Koto GamesKoto Games
353 Army of Tentacles: (Not) A Cthulhu Dating Sim: Black GOAT of the Woods Edition Jan 4, 2018 $10.99N/A (N/A)0 .. 20,0000%00:00 (00:00)Stegalosaurus Game DevelopmentStegalosaurus Game Development
354 Strike Team Hydra Dec 8, 2017 $6.99N/A (N/A)0 .. 20,0000%00:00 (00:00)Wave Light Games Inc.Wave Light Games Inc.
355 Reverse Fantasy Legend Nov 23, 2017 $18.99N/A (N/A)0 .. 20,0000%00:00 (00:00)废材炼金术士废材炼金术士
356 Willy-Nilly Knight Nov 10, 2017 $14.99N/A (N/A)20,000 .. 50,0000%00:00 (00:00)Double Dice GamesDouble Dice Games
357 Lost Dimension Oct 30, 2017 $24.99N/A (N/A)20,000 .. 50,0000%00:00 (00:00)FURYU CorporationGhostlight LTD
358 Bionic Battle Mutants Oct 24, 2017 $4.99N/A (N/A)50,000 .. 100,0000%00:00 (00:00)MonkeyneticsMonkeynetics
359 Warbanners Oct 18, 2017 $19.99N/A (N/A)20,000 .. 50,0000%00:00 (00:00)Crasleen GamesCrasleen Games
360 Beastmancer Oct 5, 2017 $9.99N/A (N/A)0 .. 20,0000%00:00 (00:00)AutarcaAutarca
361 Clarent Saga: Tactics Sep 25, 2017 FreeN/A (N/A)0 .. 20,0000%00:00 (00:00)David NguyenDavid Nguyen
362 Ancient Frontier Sep 21, 2017 $24.99N/A (N/A)0 .. 20,0000%00:00 (00:00)Fair Weather Studios, LLCFair Weather Studios, LLC
363 Legion Tale Sep 20, 2017 $4.99N/A (N/A)50,000 .. 100,0000%00:00 (00:00)Maulidan GamesMaulidan Games
364 Warbands: Bushido Sep 15, 2017 FreeN/A (N/A)100,000 .. 200,0000%00:00 (00:00)Red Unit StudiosRed Unit Studios
365 Garden Tale Sep 13, 2017 $9.99N/A (N/A)20,000 .. 50,0000%00:00 (00:00)Bonion GamesPLAYISM
366 Steam Tactics Sep 12, 2017 $4.99N/A (N/A)0 .. 20,0000%00:00 (00:00)Igor RashkuevIgor Rashkuev
367 Age of Fear 3: The Legend Sep 1, 2017 $24.99N/A (N/A)0 .. 20,0000%00:00 (00:00)Leslaw SliwkoAge of Fear
368 Weaves of Fate Aug 3, 2017 $3.99N/A (N/A)20,000 .. 50,0000%00:00 (00:00)Tom KingstonTom Kingston
369 Metal as Phuk Jul 13, 2017 $4.99N/A (N/A)0 .. 20,0000%00:00 (00:00)Crankage GamesCrankage Games
370 Brigand: Oaxaca Jul 11, 2017 $2.99N/A (N/A)1,000,000 .. 2,000,0000%00:00 (00:00)Brian Lancaster, Laughing Coyote SoftwareBrian Lancaster, Laughing Coyote Software
371 Monsters' Den: Godfall Jul 6, 2017 $14.99N/A (N/A)50,000 .. 100,0000%00:00 (00:00)MonstrumMonstrum
372 Swords and Sandals 2 Redux Jun 29, 2017 $8.99N/A (N/A)20,000 .. 50,0000%00:00 (00:00)Whiskeybarrel StudioseGames.com
373 Alvora Tactics Jun 1, 2017 $9.99N/A (N/A)0 .. 20,0000%00:00 (00:00)Rad CodexRad Codex
374 Heroes Tactics May 24, 2017 FreeN/A (N/A)50,000 .. 100,0000%00:00 (00:00)Camex GamesCamex Games
375 NEXT JUMP: Shmup Tactics Apr 28, 2017 $4.99N/A (N/A)20,000 .. 50,0000%00:00 (00:00)Post Mortem PixelsPost Mortem Pixels
376 Tokyo Twilight Ghost Hunters Daybreak: Special Gigs Mar 17, 2017 $9.99N/A (N/A)0 .. 20,0000%00:00 (00:00)Arc System Works, TOYBOX Inc.PQube Limited
377 Wacky Spores: The Chase Feb 10, 2017 $8.99N/A (N/A)0 .. 20,0000%00:00 (00:00)Lorenzo BellincampiLorenzo Bellincampi
378 Hellenica Jan 23, 2017 $9.99N/A (N/A)0 .. 20,0000%00:00 (00:00)The DragonloftThe Dragonloft
379 Alien Shooter TD Jan 13, 2017 $9.99N/A (N/A)50,000 .. 100,0000%00:00 (00:00)Sigma Team Inc.Sigma Team Inc.
380 Low Magic Age Jan 10, 2017 $14.99N/A (N/A)100,000 .. 200,0000%00:00 (00:00)Low Magic StudiosLow Magic Studios
381 Advanced Gaming Platform::Epica Dec 22, 2016 $19.99N/A (N/A)0 .. 20,0000%00:00 (00:00)AGP::StudiosAGP::Studios
382 Moekuri: Adorable + Tactical SRPG Dec 16, 2016 $11.99N/A (N/A)20,000 .. 50,0000%00:00 (00:00)MokyuSoftCulture Select
383 Castle Battles Dec 16, 2016 $9.99N/A (N/A)0 .. 20,0000%00:00 (00:00)Light Arc Studio LtdLight Arc Studio Ltd
384 Age of Fear: The Undead King Nov 15, 2016 $19.99N/A (N/A)20,000 .. 50,0000%00:00 (00:00)Leslaw SliwkoAge of Fear
385 Dungeon Rats Nov 4, 2016 $4.99N/A (N/A)50,000 .. 100,0000%00:00 (00:00)Iron Tower StudioIron Tower Studio
386 Farabel Oct 14, 2016 $9.99N/A (N/A)0 .. 20,0000%00:00 (00:00)FrogamesFrogames, Goblinz Digital, indienova
387 Stellar Tactics Sep 22, 2016 $19.99N/A (N/A)50,000 .. 100,0000%00:00 (00:00)Maverick GamesMaverick Games
388 Sorcerer King: Rivals Sep 22, 2016 $9.99N/A (N/A)50,000 .. 100,0000%00:00 (00:00)Stardock EntertainmentStardock Entertainment
389 Wooden House Sep 5, 2016 $0.99N/A (N/A)50,000 .. 100,0000%00:00 (00:00)GDNomadInfernal Dream
390 Mugen Souls Z Aug 25, 2016 $19.99N/A (N/A)0 .. 20,0000%00:00 (00:00)Idea FactoryGhostlight LTD
391 Phantom Brave PC Jul 25, 2016 $4.99N/A (N/A)20,000 .. 50,0000%00:00 (00:00)Nippon Ichi Software, Inc.NIS America, Inc.
392 Heroes Must Die Jul 15, 2016 FreeN/A (N/A)0 .. 20,0000%00:00 (00:00)Heroic GamesHeroic Games
393 Disgraced Jun 20, 2016 $8.99N/A (N/A)20,000 .. 50,0000%00:00 (00:00)Corrosive Studios LLCCorrosive Studios LLC
394 Forge of Gods (RPG) May 6, 2016 N/AN/A (N/A)500,000 .. 1,000,0000%00:00 (00:00)Panoramik IncPanoramik Inc
395 Flesh Eaters May 3, 2016 $0.97N/A (N/A)500,000 .. 1,000,0000%00:00 (00:00)S.C. 16 BIT NIGHTS S.R.L.S.C. 16 BIT NIGHTS S.R.L.
396 Bastard Bonds Apr 29, 2016 $10.99N/A (N/A)20,000 .. 50,0000%00:00 (00:00)BigfingersBigfingers
397 Hyperdevotion Noire: Goddess Black Heart (Neptunia) Apr 26, 2016 $14.99N/A (N/A)100,000 .. 200,0000%00:00 (00:00)Idea Factory, Compile Heart, StingIdea Factory International
398 Age of Fear 2: The Chaos Lord GOLD Mar 27, 2016 $19.99N/A (N/A)20,000 .. 50,0000%00:00 (00:00)Leslaw SliwkoAge of Fear
399 Labyrinth Mar 7, 2016 N/AN/A (N/A)20,000 .. 50,0000%00:00 (00:00)Free Range GamesFree Range Games
400 Worlds of Chaos: Invasion Feb 10, 2016 $14.99N/A (N/A)0 .. 20,0000%00:00 (00:00)TactichaosTactichaos
401 Miolhr Jan 15, 2016 $7.99N/A (N/A)0 .. 20,0000%00:00 (00:00)Miolhr CompanyMiolhr Company
402 Into the Void Dec 4, 2015 $1.99N/A (N/A)20,000 .. 50,0000%00:00 (00:00)Mozg LabsMozg Labs
403 Voidspire Tactics Nov 2, 2015 $14.99N/A (N/A)0 .. 20,0000%00:00 (00:00)Rad CodexRad Codex
404 Mugen Souls Oct 22, 2015 $19.99N/A (N/A)50,000 .. 100,0000%00:00 (00:00)Idea FactoryGhostlight LTD
405 Fairspace Oct 21, 2015 $8.99N/A (N/A)0 .. 20,0000%00:00 (00:00)Sub Orbital SoftwareSub Orbital Software
406 Reverse Crawl Sep 24, 2015 $5.99N/A (N/A)0 .. 20,0000%00:00 (00:00)Nerdook ProductionsDigerati
407 Templar Battleforce Sep 21, 2015 $9.99N/A (N/A)100,000 .. 200,0000%00:00 (00:00)Trese BrothersTrese Brothers
408 Braveland Pirate Sep 15, 2015 $9.99N/A (N/A)20,000 .. 50,0000%00:00 (00:00)Tortuga TeamTortuga Team
409 Renowned Explorers: International Society Sep 2, 2015 $19.99N/A (N/A)200,000 .. 500,0000%00:00 (00:00)Abbey GamesAbbey Games
410 Fallen: A2P Protocol Aug 14, 2015 $9.99N/A (N/A)20,000 .. 50,0000%00:00 (00:00)Red KatanaRed Katana
411 Breach & Clear: Deadline Rebirth (2016) Jul 20, 2015 $9.99N/A (N/A)100,000 .. 200,0000%00:00 (00:00)Mighty Rabbit Studios, Gun MediaGood Shepherd Entertainment, Devolver Digital
412 Centauri Sector Jun 24, 2015 $4.99N/A (N/A)0 .. 20,0000%00:00 (00:00)LW GamesLW Games
413 Tap Heroes Jun 5, 2015 $2.99N/A (N/A)100,000 .. 200,0000%00:00 (00:00)VaragtPVaragtP
414 Waste Walkers Jun 1, 2015 $8.99N/A (N/A)20,000 .. 50,0000%00:00 (00:00)Corrosive Studios LLCCorrosive Studios LLC
415 Telepath Tactics Apr 16, 2015 $14.99N/A (N/A)0 .. 20,0000%00:00 (00:00)Sinister DesignSinister Design
416 FLAMBERGE Mar 25, 2015 $9.99N/A (N/A)0 .. 20,0000%00:00 (00:00)HYDEZEKEHammerware, s.r.o.
417 Agarest: Generations of War 2 Feb 19, 2015 $19.99N/A (N/A)20,000 .. 50,0000%00:00 (00:00)Idea FactoryGhostlight LTD
Overview

Tactical RPG

Games with this tag: 417
Average userscore: N/A%
Average metascore: 72.41%
Average playtime: 15:16
Total copies owned: 64,156,000
Average price: $15.17
Help

Owners: Estimated number of people owning this game. The number might be way too small for new releases and sometimes way too big for games that had free weekend event recently. Read more on About page.

Playtime: Average hours played in total per person that have actually launched this game since March 2009. This time is calculated for the whole lifetime, not for the particular year.

Average score: Average users and metacritic score for all games with this score assigned.

Average playtime: Average lifetime playtime for all games where this data is available.

Games in this genre: Self-explaining - number of games with this tag. Only inculdes games with sales data available.

Total copies owned: Refers to total copies of games with this tag acquired by users for the lifetime. Includes copies sold, downloaded for free and given out.

This number might be too small for recently released games or too big for games that had a free weekend in the last couple of months.

Graphs

Login required.

Please register or log in to see this information.

Login required.

Please register or log in to see this information.